Terminal Aerodrome Forecast
Issued by NWS Pueblo, CO

Current Version | Previous Version | Text Only | Print | Product List | Glossary On
Versions: 1 2 3 4 5 6 7 8 9 10 11 12 13 14 15 16 17 18 19
000
FTUS45 KPUB 250520
TAFALS
TAF
KALS 250520Z 2506/2606 VRB05KT P6SM SCT080 BKN200
     FM251100 VRB04KT P6SM SCT010 SCT200
     FM251700 20008KT P6SM SCT100 BKN150
     FM252200 22010KT P6SM VCTS SCT080CB BKN140
     FM260400 VRB05KT P6SM SCT080 BKN140=

USA.gov is the U.S. government's official web portal to all federal, state and local government web resources and services.